Terminal Aerodrome Forecast
Issued by NWS Wilmington, NC

Home | Current Version | Previous Version | Text Only | Print | Product List | Glossary On
Versions: 1 2 3 4 5 6 7 8 9 10 11 12 13 14 15 16 17 18 19 20 21 22 23 24
000
FTUS42 KILM 271741
TAFFLO
TAF
KFLO 271741Z 2718/2818 36012G16KT 6SM -RA BKN010 OVC025
      TEMPO 2718/2719 2SM +TSRA SCT007 BKN014CB
     FM272100 36009KT 4SM -RA BR BKN008
     FM280100 34007KT P6SM BKN020 OVC040
     FM281100 33010KT P6SM SCT100 BKN250=

USA.gov is the U.S. government's official web portal to all federal, state and local government web resources and services.